N647EO KHIO-ZZZZ
Flight info
| Callsign | N647EO |
|---|---|
| Flight time | N/A |
| Altitude | 1200 |
| Route | KHIO |
| Aircraft | C172/L-VGD/A |
Departure
| Time | 2026-05-07 03:46 |
|---|---|
| Airport | Portland Hillsboro Airport (KHIO) |
Arrival
| Time | N/A |
|---|---|
| Airport | ZZZZ |
| Time | Latitude | Longitude | Altitude | Speed | Heading |
|---|---|---|---|---|---|
| 2026-05-07 03:32 | 45.53355 | -122.94531 | 204 ft | 0 kts | 0° |
| 2026-05-07 03:39 | 45.53361 | -122.94531 | 208 ft | 4 kts | 352° |
| 2026-05-07 03:39 | 45.53413 | -122.94577 | 208 ft | 14 kts | 319° |
| 2026-05-07 03:40 | 45.53462 | -122.94589 | 208 ft | 6 kts | 352° |
| 2026-05-07 03:40 | 45.53479 | -122.94601 | 204 ft | 0 kts | 315° |
| 2026-05-07 03:42 | 45.53490 | -122.94606 | 204 ft | 6 kts | 342° |
| 2026-05-07 03:42 | 45.53537 | -122.94612 | 204 ft | 8 kts | 62° |
| 2026-05-07 03:43 | 45.53543 | -122.94599 | 209 ft | 0 kts | 49° |
| 2026-05-07 03:44 | 45.53558 | -122.94573 | 209 ft | 9 kts | 51° |
| 2026-05-07 03:44 | 45.53621 | -122.94542 | 204 ft | 6 kts | 321° |
| 2026-05-07 03:44 | 45.53623 | -122.94544 | 204 ft | 0 kts | 324° |
| 2026-05-07 03:45 | 45.53623 | -122.94545 | 204 ft | 1 kts | 325° |
| 2026-05-07 03:45 | 45.53675 | -122.94598 | 203 ft | 26 kts | 323° |
| 2026-05-07 03:45 | 45.53961 | -122.94903 | 219 ft | 71 kts | 324° |
| 2026-05-07 03:46 | 45.54411 | -122.95426 | 301 ft | 91 kts | 323° |
| 2026-05-07 03:46 | 45.54866 | -122.95987 | 585 ft | 80 kts | 321° |
| 2026-05-07 03:46 | 45.55245 | -122.96521 | 817 ft | 78 kts | 318° |
| 2026-05-07 03:46 | 45.55627 | -122.97159 | 977 ft | 88 kts | 304° |
| 2026-05-07 03:47 | 45.55651 | -122.98043 | 1173 ft | 95 kts | 250° |
| 2026-05-07 03:47 | 45.55177 | -122.98776 | 1351 ft | 103 kts | 231° |
| 2026-05-07 03:47 | 45.54593 | -122.99571 | 1232 ft | 120 kts | 226° |
| 2026-05-07 03:47 | 45.53852 | -122.99871 | 1300 ft | 117 kts | 163° |
| 2026-05-07 03:48 | 45.53172 | -122.99195 | 1297 ft | 116 kts | 142° |
| 2026-05-07 03:48 | 45.52506 | -122.98528 | 1293 ft | 118 kts | 145° |
| 2026-05-07 03:48 | 45.51807 | -122.97878 | 1246 ft | 120 kts | 146° |
| 2026-05-07 03:48 | 45.51121 | -122.97231 | 1197 ft | 114 kts | 145° |
| 2026-05-07 03:49 | 45.50472 | -122.96638 | 1190 ft | 109 kts | 144° |
| 2026-05-07 03:49 | 45.50014 | -122.95898 | 1184 ft | 96 kts | 93° |
| 2026-05-07 03:49 | 45.50240 | -122.95106 | 1191 ft | 87 kts | 51° |
| 2026-05-07 03:49 | 45.50547 | -122.94354 | 1195 ft | 88 kts | 53° |
| 2026-05-07 03:50 | 45.50869 | -122.93619 | 1095 ft | 87 kts | 54° |
| 2026-05-07 03:50 | 45.51189 | -122.92914 | 998 ft | 79 kts | 47° |
| 2026-05-07 03:50 | 45.51662 | -122.92763 | 816 ft | 76 kts | 342° |
| 2026-05-07 03:50 | 45.52113 | -122.93019 | 602 ft | 65 kts | 334° |
| 2026-05-07 03:51 | 45.52521 | -122.93426 | 422 ft | 75 kts | 329° |
| 2026-05-07 03:51 | 45.52937 | -122.93844 | 389 ft | 72 kts | 327° |
| 2026-05-07 03:51 | 45.53332 | -122.94247 | 290 ft | 69 kts | 327° |
| 2026-05-07 03:51 | 45.53708 | -122.94640 | 207 ft | 57 kts | 331° |
| 2026-05-07 03:52 | 45.53959 | -122.94894 | 205 ft | 41 kts | 325° |
| 2026-05-07 03:52 | 45.54289 | -122.95246 | 222 ft | 77 kts | 321° |
| 2026-05-07 03:52 | 45.54678 | -122.95825 | 413 ft | 85 kts | 314° |
| 2026-05-07 03:52 | 45.55053 | -122.96443 | 626 ft | 80 kts | 321° |
| 2026-05-07 03:53 | 45.55464 | -122.96970 | 875 ft | 79 kts | 320° |
| 2026-05-07 03:53 | 45.55700 | -122.97351 | 1036 ft | 80 kts | 299° |
| 2026-05-07 03:53 | 45.55328 | -122.98312 | 1212 ft | 100 kts | 236° |
| 2026-05-07 03:53 | 45.54838 | -122.99140 | 1213 ft | 111 kts | 234° |
| 2026-05-07 03:54 | 45.54162 | -122.99596 | 1199 ft | 114 kts | 172° |
| 2026-05-07 03:54 | 45.53478 | -122.99062 | 1211 ft | 114 kts | 143° |
| 2026-05-07 03:54 | 45.53027 | -122.98631 | 1208 ft | 116 kts | 146° |
| 2026-05-07 03:54 | 45.52368 | -122.98013 | 1207 ft | 117 kts | 143° |
| 2026-05-07 03:55 | 45.51682 | -122.97375 | 1202 ft | 115 kts | 146° |
| 2026-05-07 03:55 | 45.51038 | -122.96766 | 1202 ft | 104 kts | 144° |
| 2026-05-07 03:55 | 45.50450 | -122.96243 | 1132 ft | 102 kts | 144° |
| 2026-05-07 03:55 | 45.49850 | -122.95675 | 1006 ft | 103 kts | 140° |
| 2026-05-07 03:56 | 45.49623 | -122.94832 | 895 ft | 89 kts | 67° |
| 2026-05-07 03:56 | 45.49933 | -122.94153 | 888 ft | 77 kts | 52° |
| 2026-05-07 03:56 | 45.50221 | -122.93519 | 833 ft | 75 kts | 56° |
| 2026-05-07 03:56 | 45.50504 | -122.92884 | 841 ft | 77 kts | 54° |
| 2026-05-07 03:57 | 45.50804 | -122.92239 | 829 ft | 78 kts | 46° |
| 2026-05-07 03:57 | 45.51307 | -122.92160 | 799 ft | 84 kts | 333° |
| 2026-05-07 03:57 | 45.51764 | -122.92606 | 728 ft | 78 kts | 333° |
| 2026-05-07 03:57 | 45.52195 | -122.93071 | 571 ft | 78 kts | 332° |
| 2026-05-07 03:58 | 45.52625 | -122.93507 | 458 ft | 76 kts | 330° |
| 2026-05-07 03:58 | 45.53057 | -122.93965 | 366 ft | 75 kts | 326° |
| 2026-05-07 03:58 | 45.53456 | -122.94371 | 244 ft | 66 kts | 330° |
| 2026-05-07 03:58 | 45.53773 | -122.94692 | 204 ft | 46 kts | 323° |
| 2026-05-07 03:59 | 45.53988 | -122.94927 | 214 ft | 33 kts | 329° |
| 2026-05-07 03:59 | 45.54180 | -122.95127 | 207 ft | 37 kts | 323° |
| 2026-05-07 03:59 | 45.54399 | -122.95358 | 205 ft | 32 kts | 320° |
| 2026-05-07 03:59 | 45.54487 | -122.95531 | 207 ft | 11 kts | 237° |
| 2026-05-07 04:00 | 45.54416 | -122.95572 | 210 ft | 6 kts | 143° |
| 2026-05-07 04:00 | 45.54390 | -122.95546 | 204 ft | 0 kts | 146° |
| 2026-05-07 04:00 | 45.54371 | -122.95526 | 204 ft | 10 kts | 144° |
| 2026-05-07 04:01 | 45.54272 | -122.95423 | 204 ft | 24 kts | 143° |
| 2026-05-07 04:01 | 45.54116 | -122.95260 | 213 ft | 31 kts | 143° |
| 2026-05-07 04:01 | 45.53929 | -122.95061 | 204 ft | 34 kts | 144° |
| 2026-05-07 04:01 | 45.53739 | -122.94861 | 203 ft | 34 kts | 142° |
| 2026-05-07 04:02 | 45.53581 | -122.94742 | 204 ft | 17 kts | 181° |
| 2026-05-07 04:02 | 45.53449 | -122.94746 | 204 ft | 20 kts | 181° |
| 2026-05-07 04:02 | 45.53377 | -122.94690 | 204 ft | 12 kts | 144° |
| 2026-05-07 04:02 | 45.53339 | -122.94601 | 208 ft | 11 kts | 91° |
| 2026-05-07 04:03 | 45.53338 | -122.94567 | 204 ft | 0 kts | 90° |